Time;durP1;ratioP1;P1;durP2;ratioP2;P2;SDS_P1;SDS_P2;PMS_P1;PMS_P2;Temp;Humidity;BMP_temperature;BMP_pressure;BME280_temperature;BME280_humidity;BME280_pressure;Samples;Min_cycle;Max_cycle;Signal;HPM_P1;HPM_P2
2022/09/05 00:02:39;;;;;;;5.03;4.10;;;22.70;98.10;;;;;;4954630;28;20449;-73
2022/09/05 00:05:10;;;;;;;4.30;3.60;;;22.70;98.20;;;;;;4956360;28;20214;-74
2022/09/05 00:07:41;;;;;;;3.30;3.00;;;22.70;98.30;;;;;;4973885;28;20541;-71
2022/09/05 00:10:16;;;;;;;3.70;3.40;;;22.60;98.40;;;;;;4954326;28;21053;-71
2022/09/05 00:12:42;;;;;;;4.40;4.00;;;22.60;98.40;;;;;;4978424;28;21000;-75
2022/09/05 00:15:14;;;;;;;4.00;3.70;;;22.60;98.60;;;;;;4972010;28;20465;-72
2022/09/05 00:17:46;;;;;;;6.30;4.17;;;22.60;98.70;;;;;;4963502;28;20434;-74
2022/09/05 00:20:30;;;;;;;4.10;3.37;;;22.60;99.00;;;;;;4975068;28;20820;-72
2022/09/05 00:23:30;;;;;;;4.37;3.83;;;22.50;99.30;;;;;;4958172;28;20531;-72
2022/09/05 00:26:24;;;;;;;4.10;3.70;;;22.50;99.50;;;;;;4974471;28;21321;-72
2022/09/05 00:29:02;;;;;;;3.80;3.50;;;22.40;99.70;;;;;;4972780;28;20460;-72
2022/09/05 00:31:59;;;;;;;4.80;4.40;;;22.40;99.90;;;;;;4976886;28;20551;-70
2022/09/05 00:35:17;;;;;;;5.10;4.00;;;22.40;99.90;;;;;;4976560;28;20473;-71
2022/09/05 00:37:46;;;;;;;5.53;3.60;;;22.30;99.90;;;;;;4941662;28;20484;-71
2022/09/05 00:40:29;;;;;;;4.30;3.90;;;22.30;99.90;;;;;;4979058;28;20445;-71
2022/09/05 00:43:00;;;;;;;4.30;3.43;;;22.30;99.90;;;;;;4973054;28;20436;-71
2022/09/05 00:46:02;;;;;;;3.90;3.50;;;22.30;99.90;;;;;;4975600;28;20503;-71
2022/09/05 00:48:40;;;;;;;4.27;3.60;;;22.20;99.90;;;;;;4973091;28;20851;-71
2022/09/05 00:51:26;;;;;;;3.77;2.90;;;22.20;99.90;;;;;;4974466;28;20567;-71
2022/09/05 00:54:01;;;;;;;4.13;3.73;;;22.20;99.90;;;;;;4977292;28;20452;-71
2022/09/05 00:56:58;;;;;;;4.10;3.63;;;22.20;99.90;;;;;;4977712;28;20441;-71
2022/09/05 00:59:37;;;;;;;4.33;3.50;;;22.10;99.90;;;;;;4976173;28;20465;-71
2022/09/05 01:02:42;;;;;;;6.30;3.50;;;22.10;99.90;;;;;;4977745;28;20660;-71
2022/09/05 01:05:17;;;;;;;4.20;3.77;;;22.10;99.90;;;;;;4972629;28;21015;-72
2022/09/05 01:08:04;;;;;;;3.40;3.10;;;22.00;99.90;;;;;;4975022;28;20456;-71
2022/09/05 01:10:43;;;;;;;4.27;3.87;;;22.00;99.90;;;;;;4973969;28;20492;-71
2022/09/05 01:13:34;;;;;;;4.20;3.80;;;22.00;99.90;;;;;;4975134;28;20459;-72
2022/09/05 01:16:19;;;;;;;4.00;3.60;;;22.00;99.90;;;;;;4974340;28;20429;-71
2022/09/05 01:19:16;;;;;;;3.70;3.40;;;22.00;99.90;;;;;;4978841;28;20962;-71
2022/09/05 01:22:26;;;;;;;4.00;3.60;;;21.90;99.90;;;;;;4981892;28;20442;-71
2022/09/05 01:24:56;;;;;;;5.30;3.73;;;21.90;99.90;;;;;;4977845;28;20466;-71
2022/09/05 01:27:30;;;;;;;8.07;4.00;;;21.90;99.90;;;;;;4980181;28;20961;-71
2022/09/05 01:30:03;;;;;;;3.73;3.43;;;21.80;99.90;;;;;;4981652;28;20437;-72
2022/09/05 01:32:37;;;;;;;4.00;3.70;;;21.80;99.90;;;;;;4981260;28;20858;-71
2022/09/05 01:35:26;;;;;;;4.80;3.70;;;21.80;99.90;;;;;;4982113;28;21024;-71
2022/09/05 01:38:16;;;;;;;4.13;3.77;;;21.80;99.90;;;;;;4979598;28;20532;-72
2022/09/05 01:40:54;;;;;;;3.77;3.43;;;21.80;99.90;;;;;;4979137;28;20451;-73
2022/09/05 01:43:26;;;;;;;4.77;3.83;;;21.80;99.90;;;;;;4963868;28;20429;-72
2022/09/05 01:46:17;;;;;;;3.77;3.37;;;21.70;99.90;;;;;;4964918;28;20472;-72
2022/09/05 01:48:45;;;;;;;4.13;3.83;;;21.70;99.90;;;;;;4980447;28;20455;-72
2022/09/05 01:51:29;;;;;;;4.57;3.90;;;21.70;99.90;;;;;;4980134;28;20434;-73
2022/09/05 01:54:33;;;;;;;5.07;3.80;;;21.70;99.90;;;;;;4977257;28;20892;-72
2022/09/05 01:57:23;;;;;;;3.87;3.53;;;21.70;99.90;;;;;;4981694;28;20519;-71
2022/09/05 02:00:05;;;;;;;4.23;3.83;;;21.70;99.90;;;;;;4975621;28;20958;-72
2022/09/05 02:02:59;;;;;;;4.70;3.83;;;21.70;99.90;;;;;;4979549;28;20973;-72
2022/09/05 02:06:02;;;;;;;7.70;3.67;;;21.70;99.90;;;;;;4982409;28;20571;-72
2022/09/05 02:08:38;;;;;;;4.33;3.80;;;21.60;99.90;;;;;;4979196;28;20953;-72
2022/09/05 02:11:11;;;;;;;4.43;4.03;;;21.60;99.90;;;;;;4961932;28;20848;-72
2022/09/05 02:13:59;;;;;;;4.10;3.40;;;21.60;99.90;;;;;;4980288;28;20969;-72
2022/09/05 02:16:44;;;;;;;4.90;3.90;;;21.50;99.90;;;;;;4979412;28;20451;-72
2022/09/05 02:19:13;;;;;;;4.53;4.13;;;21.50;99.90;;;;;;4978598;28;20572;-72
2022/09/05 02:22:00;;;;;;;5.03;3.73;;;21.50;99.90;;;;;;4976987;28;20466;-72
2022/09/05 02:24:35;;;;;;;5.80;4.10;;;21.40;99.90;;;;;;4978159;28;20500;-72
2022/09/05 02:27:27;;;;;;;4.47;3.43;;;21.30;99.90;;;;;;4976839;28;20440;-72
2022/09/05 02:30:15;;;;;;;4.00;3.60;;;21.30;99.90;;;;;;4974937;28;20812;-72
2022/09/05 02:32:50;;;;;;;6.33;4.00;;;21.20;99.90;;;;;;4976593;28;20433;-72
2022/09/05 02:35:25;;;;;;;7.13;4.53;;;21.20;99.90;;;;;;4978777;28;20992;-71
2022/09/05 02:37:54;;;;;;;5.10;3.87;;;21.20;99.90;;;;;;4978076;28;20441;-71
2022/09/05 02:41:09;;;;;;;6.33;4.20;;;21.10;99.90;;;;;;4975617;28;20855;-72
2022/09/05 02:43:45;;;;;;;5.30;4.10;;;21.10;99.90;;;;;;4910470;28;20803;-71
2022/09/05 02:46:36;;;;;;;5.00;4.50;;;21.10;99.90;;;;;;4978299;28;20500;-70
2022/09/05 02:49:16;;;;;;;5.07;4.50;;;21.00;99.90;;;;;;4974994;28;20520;-70
2022/09/05 02:51:53;;;;;;;4.50;4.10;;;21.00;99.90;;;;;;4980939;28;20460;-71
2022/09/05 02:54:27;;;;;;;6.00;3.97;;;20.90;99.90;;;;;;4975752;28;20491;-70
2022/09/05 02:57:06;;;;;;;4.47;4.07;;;20.90;99.90;;;;;;4977440;28;20585;-73
2022/09/05 02:59:41;;;;;;;6.60;4.77;;;20.90;99.90;;;;;;4977503;28;20433;-71
2022/09/05 03:02:30;;;;;;;5.50;4.43;;;20.90;99.90;;;;;;4977286;28;20445;-71
2022/09/05 03:05:07;;;;;;;4.80;4.00;;;20.80;99.90;;;;;;4976604;28;20596;-71
2022/09/05 03:07:45;;;;;;;4.27;3.87;;;20.80;99.90;;;;;;4981508;28;20429;-71
2022/09/05 03:10:27;;;;;;;6.77;4.30;;;20.70;99.90;;;;;;4975852;28;20422;-71
2022/09/05 03:13:36;;;;;;;5.63;4.57;;;20.70;99.90;;;;;;4977991;28;20446;-70
2022/09/05 03:16:23;;;;;;;4.60;4.07;;;20.70;99.90;;;;;;4975144;28;20478;-70
2022/09/05 03:19:08;;;;;;;4.47;4.07;;;20.60;99.90;;;;;;4978165;28;20523;-71
2022/09/05 03:21:36;;;;;;;5.63;4.50;;;20.60;99.90;;;;;;4977126;28;20511;-71
2022/09/05 03:24:17;;;;;;;7.07;4.83;;;20.60;99.90;;;;;;4972532;28;20460;-71
2022/09/05 03:27:14;;;;;;;5.00;3.70;;;20.60;99.90;;;;;;4979679;28;20449;-71
2022/09/05 03:30:08;;;;;;;4.70;4.00;;;20.60;99.90;;;;;;4976503;28;20441;-71
2022/09/05 03:33:01;;;;;;;5.80;4.30;;;20.60;99.90;;;;;;4977536;28;20442;-71
2022/09/05 03:35:41;;;;;;;8.90;4.30;;;20.50;99.90;;;;;;4978035;28;20859;-71
2022/09/05 03:38:19;;;;;;;6.13;3.93;;;20.50;99.90;;;;;;4975174;28;20455;-70
2022/09/05 03:41:04;;;;;;;4.00;3.70;;;20.50;99.90;;;;;;4978296;28;20864;-71
2022/09/05 03:43:52;;;;;;;5.67;4.30;;;20.50;99.90;;;;;;4975779;28;20457;-70
2022/09/05 03:46:36;;;;;;;6.20;4.57;;;20.40;99.90;;;;;;4978396;28;20433;-70
2022/09/05 03:49:23;;;;;;;6.20;3.67;;;20.40;99.90;;;;;;4958638;28;20445;-70
2022/09/05 03:52:05;;;;;;;7.83;4.10;;;20.40;99.90;;;;;;4976899;28;20468;-70
2022/09/05 03:54:33;;;;;;;4.77;4.23;;;20.40;99.90;;;;;;4975049;28;20460;-71
2022/09/05 03:57:43;;;;;;;6.80;4.73;;;20.40;99.90;;;;;;4979402;28;20449;-72
2022/09/05 04:00:32;;;;;;;4.30;3.83;;;20.40;99.90;;;;;;4975490;28;20441;-70
2022/09/05 04:03:00;;;;;;;8.63;4.40;;;20.30;99.90;;;;;;4978538;28;20448;-69
2022/09/05 04:05:36;;;;;;;5.17;4.33;;;20.30;99.90;;;;;;4977455;28;20465;-70
2022/09/05 04:08:18;;;;;;;4.33;3.93;;;20.30;99.90;;;;;;4975873;28;20518;-70
2022/09/05 04:11:07;;;;;;;4.90;4.37;;;20.30;99.90;;;;;;4979253;28;20440;-70
2022/09/05 04:13:44;;;;;;;5.57;4.70;;;20.30;99.90;;;;;;4976139;28;21007;-71
2022/09/05 04:16:30;;;;;;;5.33;4.27;;;20.20;99.90;;;;;;4974957;28;20964;-70
2022/09/05 04:19:10;;;;;;;6.03;4.03;;;20.20;99.90;;;;;;4977104;28;20515;-70
2022/09/05 04:21:47;;;;;;;7.17;4.50;;;20.20;99.90;;;;;;4976987;28;20507;-70
2022/09/05 04:24:51;;;;;;;8.23;4.00;;;20.20;99.90;;;;;;4957485;28;20874;-70
2022/09/05 04:27:47;;;;;;;12.23;4.40;;;20.20;99.90;;;;;;4974619;28;20459;-71
2022/09/05 04:30:24;;;;;;;5.60;4.50;;;20.20;99.90;;;;;;4977607;28;20468;-70
2022/09/05 04:32:55;;;;;;;4.70;4.00;;;20.20;99.90;;;;;;4980246;28;20508;-72
2022/09/05 04:35:30;;;;;;;5.80;4.60;;;20.20;99.90;;;;;;4972465;28;20847;-72
2022/09/05 04:38:32;;;;;;;5.30;4.37;;;20.10;99.90;;;;;;4978658;28;20534;-72
2022/09/05 04:40:59;;;;;;;4.70;4.20;;;20.10;99.90;;;;;;4973289;28;20451;-72
2022/09/05 04:43:46;;;;;;;6.00;4.30;;;20.10;99.90;;;;;;4976259;28;20465;-72
2022/09/05 04:46:28;;;;;;;5.33;4.83;;;20.10;99.90;;;;;;4974227;28;20473;-72
2022/09/05 04:49:15;;;;;;;6.00;4.80;;;20.10;99.90;;;;;;4974481;28;20429;-72
2022/09/05 04:52:09;;;;;;;4.60;4.03;;;20.10;99.90;;;;;;4960191;28;20436;-72
2022/09/05 04:54:46;;;;;;;8.03;4.07;;;20.10;99.90;;;;;;4974162;28;20457;-72
2022/09/05 04:57:24;;;;;;;6.87;4.77;;;20.10;99.90;;;;;;4976215;28;20906;-72
2022/09/05 05:00:14;;;;;;;5.53;4.93;;;20.10;99.90;;;;;;4971421;28;20905;-73
2022/09/05 05:02:44;;;;;;;6.57;4.57;;;20.10;99.90;;;;;;4977680;28;20432;-71
2022/09/05 05:05:24;;;;;;;5.40;4.90;;;20.10;99.90;;;;;;4959486;28;20464;-71
2022/09/05 05:07:53;;;;;;;5.00;4.40;;;20.10;99.90;;;;;;4976801;28;20468;-71
2022/09/05 05:10:30;;;;;;;5.10;4.60;;;20.10;99.90;;;;;;4973754;28;20992;-71
2022/09/05 05:13:02;;;;;;;5.60;5.10;;;20.10;99.90;;;;;;4976415;28;20460;-71
2022/09/05 05:15:30;;;;;;;7.30;5.00;;;20.10;99.90;;;;;;4959026;28;20433;-71
2022/09/05 05:18:19;;;;;;;6.03;4.43;;;20.10;99.90;;;;;;4976310;28;20492;-71
2022/09/05 05:21:04;;;;;;;5.67;4.70;;;20.10;99.90;;;;;;4975770;28;20801;-70
2022/09/05 05:23:42;;;;;;;5.10;4.60;;;20.10;99.90;;;;;;4975037;28;20472;-72
2022/09/05 05:26:17;;;;;;;7.27;4.70;;;20.10;99.90;;;;;;4973549;28;20495;-70
2022/09/05 05:29:07;;;;;;;5.67;4.43;;;20.10;99.90;;;;;;4974626;28;20490;-71
2022/09/05 05:31:37;;;;;;;4.70;4.30;;;20.20;99.90;;;;;;4973972;28;20445;-71
2022/09/05 05:34:14;;;;;;;5.60;5.03;;;20.20;99.90;;;;;;4972654;28;20815;-70
2022/09/05 05:36:50;;;;;;;5.80;4.73;;;20.30;99.90;;;;;;4973023;28;20441;-72
2022/09/05 05:39:24;;;;;;;5.40;4.90;;;20.30;99.90;;;;;;4961355;28;20445;-72
2022/09/05 05:41:53;;;;;;;5.20;4.70;;;20.30;99.90;;;;;;4969405;28;20477;-71
2022/09/05 05:44:31;;;;;;;5.33;4.83;;;20.40;99.90;;;;;;4968330;28;20491;-72
2022/09/05 05:47:07;;;;;;;7.70;4.50;;;20.40;99.90;;;;;;4973044;28;20509;-72
2022/09/05 05:49:42;;;;;;;6.43;5.27;;;20.40;99.90;;;;;;4972029;28;20424;-72
2022/09/05 05:52:32;;;;;;;6.70;4.33;;;20.40;99.90;;;;;;4970654;28;20456;-72
2022/09/05 05:55:35;;;;;;;4.90;4.40;;;20.50;99.90;;;;;;4973089;28;20468;-72
2022/09/05 05:58:25;;;;;;;6.30;5.30;;;20.60;99.90;;;;;;4971321;28;20861;-72
2022/09/05 06:00:53;;;;;;;6.53;4.50;;;20.70;99.90;;;;;;4972577;28;20445;-72
2022/09/05 06:03:51;;;;;;;5.67;5.17;;;20.70;99.90;;;;;;4972931;28;20425;-72
2022/09/05 06:06:40;;;;;;;5.70;5.10;;;20.70;99.90;;;;;;4975590;28;20476;-72
2022/09/05 06:09:31;;;;;;;8.63;4.90;;;20.70;99.90;;;;;;4979001;28;20464;-73
2022/09/05 06:12:10;;;;;;;5.90;4.40;;;20.70;99.90;;;;;;4979179;28;20441;-73
2022/09/05 06:15:04;;;;;;;5.33;4.73;;;20.70;99.90;;;;;;4978414;28;20460;-73
2022/09/05 06:18:00;;;;;;;8.50;5.53;;;20.70;99.90;;;;;;4980628;28;20444;-72
2022/09/05 06:21:00;;;;;;;4.80;4.40;;;20.80;99.90;;;;;;4979982;28;21306;-73
2022/09/05 06:23:38;;;;;;;6.03;5.43;;;20.80;99.90;;;;;;4978868;28;20542;-71
2022/09/05 06:26:30;;;;;;;5.93;4.97;;;20.80;99.90;;;;;;4961483;28;20514;-71
2022/09/05 06:29:07;;;;;;;5.90;5.30;;;20.80;99.90;;;;;;4977911;28;20437;-72
2022/09/05 06:32:10;;;;;;;5.80;5.20;;;20.60;99.90;;;;;;4980409;28;20466;-71
2022/09/05 06:35:13;;;;;;;6.30;4.53;;;20.60;99.90;;;;;;4977446;28;20490;-71
2022/09/05 06:38:16;;;;;;;6.50;5.43;;;20.70;99.90;;;;;;4974141;28;20462;-71
2022/09/05 06:41:04;;;;;;;6.50;5.40;;;20.70;99.90;;;;;;4973982;28;21072;-71
2022/09/05 06:44:11;;;;;;;7.57;5.57;;;20.60;99.90;;;;;;4976674;28;20659;-70
2022/09/05 06:46:40;;;;;;;18.13;5.30;;;20.60;99.90;;;;;;4976665;28;20437;-72
2022/09/05 06:49:13;;;;;;;6.40;5.80;;;20.60;99.90;;;;;;4975109;28;20559;-72
2022/09/05 06:51:44;;;;;;;6.60;5.47;;;20.60;99.90;;;;;;4978596;28;20977;-72
2022/09/05 06:54:35;;;;;;;9.47;5.27;;;20.60;99.90;;;;;;4977166;28;20980;-71
2022/09/05 06:57:29;;;;;;;6.93;5.77;;;20.70;99.90;;;;;;4974782;28;20461;-71
2022/09/05 07:00:13;;;;;;;8.20;5.60;;;20.70;99.90;;;;;;4975673;28;20440;-72
2022/09/05 07:02:58;;;;;;;6.73;6.03;;;20.70;99.90;;;;;;4960776;28;20902;-71
2022/09/05 07:05:51;;;;;;;6.53;5.80;;;20.70;99.90;;;;;;4952589;28;20476;-72
2022/09/05 07:09:06;;;;;;;9.67;6.50;;;20.80;99.90;;;;;;4975936;28;20509;-72
2022/09/05 07:11:43;;;;;;;6.67;6.07;;;20.90;99.90;;;;;;4905793;28;20464;-73
2022/09/05 07:14:23;;;;;;;6.13;5.23;;;21.00;99.90;;;;;;4979638;28;20543;-72
2022/09/05 07:17:27;;;;;;;7.17;5.23;;;21.10;99.90;;;;;;4975242;28;20801;-72
2022/09/05 07:19:59;;;;;;;7.10;5.27;;;21.20;99.90;;;;;;4926823;28;20860;-70
2022/09/05 07:22:32;;;;;;;8.77;5.43;;;21.20;99.90;;;;;;4976885;28;20453;-71
2022/09/05 07:25:04;;;;;;;6.40;5.77;;;21.30;99.90;;;;;;4976157;28;20473;-70
2022/09/05 07:27:42;;;;;;;7.37;5.50;;;21.30;99.90;;;;;;4959620;28;21245;-69
2022/09/05 07:30:09;;;;;;;5.50;4.90;;;21.30;99.90;;;;;;4975845;28;20433;-70
2022/09/05 07:32:48;;;;;;;6.80;5.17;;;21.40;99.90;;;;;;4976371;28;20550;-71
2022/09/05 07:35:29;;;;;;;5.67;5.00;;;21.40;99.90;;;;;;4976342;28;20993;-71
2022/09/05 07:38:12;;;;;;;6.60;5.60;;;21.40;99.90;;;;;;4973238;28;20445;-71
2022/09/05 07:40:45;;;;;;;7.27;5.80;;;21.40;99.90;;;;;;4975594;28;20532;-74
2022/09/05 07:43:16;;;;;;;8.30;6.30;;;21.40;99.90;;;;;;4970979;28;20790;-73
2022/09/05 07:45:50;;;;;;;13.07;6.37;;;21.40;99.90;;;;;;4969153;28;20955;-75
2022/09/05 07:48:22;;;;;;;6.00;5.50;;;21.40;99.90;;;;;;4970064;28;20436;-74
2022/09/05 07:50:59;;;;;;;11.90;5.83;;;21.30;99.90;;;;;;4971688;28;20851;-73
2022/09/05 07:53:26;;;;;;;7.17;5.80;;;21.20;99.90;;;;;;4972898;28;20469;-73
2022/09/05 07:55:57;;;;;;;5.80;5.07;;;21.30;99.90;;;;;;4973944;28;20559;-73
2022/09/05 07:58:49;;;;;;;7.37;6.07;;;21.20;99.90;;;;;;4969060;28;20535;-72
2022/09/05 08:01:17;;;;;;;6.13;5.20;;;21.20;99.90;;;;;;4972068;28;20962;-73
2022/09/05 08:03:43;;;;;;;6.00;5.43;;;21.00;99.90;;;;;;4968091;28;21023;-73
2022/09/05 08:06:18;;;;;;;10.77;5.70;;;21.10;99.90;;;;;;4972150;28;20520;-74
2022/09/05 08:08:58;;;;;;;6.00;5.40;;;21.10;99.90;;;;;;4956428;28;20469;-73
2022/09/05 08:11:26;;;;;;;6.30;5.70;;;21.10;99.90;;;;;;4969672;28;20453;-74
2022/09/05 08:14:12;;;;;;;6.10;5.50;;;21.30;99.90;;;;;;4971717;28;20453;-75
2022/09/05 08:16:38;;;;;;;8.83;6.70;;;21.40;99.90;;;;;;4971046;28;21140;-75
2022/09/05 08:19:42;;;;;;;8.70;5.77;;;21.40;99.90;;;;;;4972732;28;20828;-72
2022/09/05 08:22:18;;;;;;;12.80;6.13;;;21.60;99.90;;;;;;4973135;28;20441;-75
2022/09/05 08:24:54;;;;;;;13.53;6.53;;;21.70;99.90;;;;;;4967874;28;21079;-74
2022/09/05 08:27:30;;;;;;;16.37;6.73;;;21.70;99.90;;;;;;4971748;28;20439;-72
2022/09/05 08:30:06;;;;;;;7.23;6.53;;;21.80;99.90;;;;;;4969450;28;20647;-79
2022/09/05 08:32:57;;;;;;;6.13;5.50;;;21.90;99.90;;;;;;4974437;28;20977;-78
2022/09/05 08:35:39;;;;;;;7.60;5.43;;;21.80;99.90;;;;;;4975415;28;20844;-71
2022/09/05 08:38:06;;;;;;;8.70;6.27;;;21.90;99.90;;;;;;4971452;28;20448;-78
2022/09/05 08:40:38;;;;;;;6.67;6.07;;;22.00;99.90;;;;;;4972190;28;20468;-74
2022/09/05 08:43:12;;;;;;;6.70;5.77;;;22.10;99.90;;;;;;4970789;28;20456;-75
2022/09/05 08:45:56;;;;;;;7.00;6.10;;;22.10;99.90;;;;;;4970436;28;21002;-73
2022/09/05 08:48:49;;;;;;;8.00;5.83;;;22.20;99.90;;;;;;4969216;28;20788;-74
2022/09/05 08:51:52;;;;;;;6.50;5.90;;;22.20;99.90;;;;;;4974594;28;20445;-73
2022/09/05 08:54:39;;;;;;;5.87;5.37;;;22.30;99.90;;;;;;4970722;28;20514;-75
2022/09/05 08:57:46;;;;;;;6.30;5.47;;;22.30;99.90;;;;;;4968985;28;20853;-76
2022/09/05 09:00:17;;;;;;;7.10;5.70;;;22.40;99.90;;;;;;4938037;28;20989;-73
2022/09/05 09:03:04;;;;;;;6.70;5.63;;;22.50;99.90;;;;;;4968448;28;21108;-73
2022/09/05 09:06:04;;;;;;;6.47;4.60;;;22.40;99.90;;;;;;4969984;28;20832;-72
2022/09/05 09:09:02;;;;;;;8.53;4.73;;;22.50;99.90;;;;;;4970666;28;20732;-73
2022/09/05 09:11:39;;;;;;;5.60;5.00;;;22.70;99.90;;;;;;4971027;28;20945;-74
2022/09/05 09:14:32;;;;;;;7.87;6.13;;;22.80;99.90;;;;;;4970757;28;20547;-74
2022/09/05 09:17:19;;;;;;;6.93;6.00;;;22.80;99.90;;;;;;4970926;28;20437;-74
2022/09/05 09:20:06;;;;;;;5.73;5.23;;;22.90;99.90;;;;;;4972218;28;20449;-75
2022/09/05 09:23:01;;;;;;;7.77;6.90;;;23.00;99.90;;;;;;4974928;28;21062;-75
2022/09/05 09:25:41;;;;;;;9.33;5.87;;;23.00;99.90;;;;;;4972528;28;20619;-76
2022/09/05 09:28:17;;;;;;;9.20;5.83;;;23.20;99.90;;;;;;4969333;28;20449;-76
2022/09/05 09:30:55;;;;;;;6.40;5.17;;;23.30;99.90;;;;;;4966908;28;20515;-73
2022/09/05 09:33:39;;;;;;;6.20;5.10;;;23.30;99.90;;;;;;4970145;28;20840;-74
2022/09/05 09:36:21;;;;;;;8.07;7.30;;;23.20;99.90;;;;;;4969925;28;20974;-73
2022/09/05 09:39:05;;;;;;;6.60;5.03;;;23.30;99.90;;;;;;4967207;28;20444;-74
2022/09/05 09:41:58;;;;;;;6.60;6.00;;;23.40;99.90;;;;;;4974129;28;20804;-74
2022/09/05 09:44:52;;;;;;;6.63;4.83;;;23.40;99.90;;;;;;4952271;28;20535;-72
2022/09/05 09:47:49;;;;;;;5.93;5.27;;;23.50;99.90;;;;;;4971184;28;20547;-72
2022/09/05 09:50:15;;;;;;;5.00;4.50;;;23.70;99.90;;;;;;4973864;28;20582;-72
2022/09/05 09:53:18;;;;;;;12.20;4.87;;;23.70;99.90;;;;;;4976735;28;20454;-73
2022/09/05 09:56:08;;;;;;;5.57;5.07;;;23.70;99.90;;;;;;4976756;28;20206;-75
2022/09/05 09:58:56;;;;;;;5.00;4.50;;;23.80;99.90;;;;;;4955559;28;20916;-75
2022/09/05 10:01:59;;;;;;;4.73;4.33;;;23.90;99.90;;;;;;4975116;28;21208;-77
2022/09/05 10:04:43;;;;;;;5.33;4.83;;;23.90;99.90;;;;;;4971564;28;20465;-75
2022/09/05 10:07:17;;;;;;;5.00;4.60;;;24.00;99.90;;;;;;4973332;28;20799;-75
2022/09/05 10:10:18;;;;;;;5.27;4.77;;;24.10;99.90;;;;;;4969341;28;20830;-77
2022/09/05 10:12:59;;;;;;;5.10;4.70;;;24.20;99.90;;;;;;4973174;28;20472;-77
2022/09/05 10:15:33;;;;;;;4.90;4.50;;;24.30;99.90;;;;;;4957326;28;20469;-74
2022/09/05 10:18:17;;;;;;;6.13;5.57;;;24.40;99.90;;;;;;4973371;28;20611;-73
2022/09/05 10:20:58;;;;;;;6.10;5.50;;;24.50;99.90;;;;;;4976327;28;20449;-71
2022/09/05 10:23:38;;;;;;;6.40;5.00;;;24.60;99.90;;;;;;4969772;28;20459;-73
2022/09/05 10:26:47;;;;;;;5.00;4.60;;;24.70;99.90;;;;;;4969910;28;20480;-72
2022/09/05 10:29:42;;;;;;;5.17;4.70;;;24.70;99.90;;;;;;4970971;28;20984;-78
2022/09/05 10:32:15;;;;;;;5.70;4.40;;;24.80;99.90;;;;;;4972587;28;21208;-77
2022/09/05 10:34:55;;;;;;;4.57;4.17;;;24.90;99.90;;;;;;4970665;28;20477;-77
2022/09/05 10:37:25;;;;;;;7.03;5.73;;;25.00;99.90;;;;;;4970714;28;21063;-74
2022/09/05 10:39:51;;;;;;;4.90;4.50;;;25.10;99.90;;;;;;4971134;28;20444;-73
2022/09/05 10:42:36;;;;;;;4.37;4.03;;;25.20;99.90;;;;;;4972996;28;20981;-73
2022/09/05 10:45:09;;;;;;;7.00;4.73;;;25.20;99.90;;;;;;4970037;28;20698;-71
2022/09/05 10:47:50;;;;;;;6.40;4.10;;;25.30;99.90;;;;;;4970625;28;20449;-72
2022/09/05 10:50:43;;;;;;;4.37;3.97;;;25.50;99.90;;;;;;4972835;28;20464;-71
2022/09/05 10:53:15;;;;;;;4.50;4.00;;;25.60;99.90;;;;;;4963447;28;20813;-75
2022/09/05 10:55:55;;;;;;;4.17;3.77;;;25.60;99.90;;;;;;4977508;28;20442;-72
2022/09/05 10:58:42;;;;;;;4.80;4.10;;;25.80;99.90;;;;;;4973351;28;21167;-72
2022/09/05 11:01:27;;;;;;;4.93;4.30;;;25.80;99.90;;;;;;4974959;28;20441;-73
2022/09/05 11:04:10;;;;;;;8.13;4.70;;;25.80;99.90;;;;;;4976763;28;20461;-71
2022/09/05 11:06:45;;;;;;;5.67;4.40;;;26.00;99.90;;;;;;4969156;28;20456;-72
2022/09/05 11:09:27;;;;;;;4.83;4.43;;;26.00;99.90;;;;;;4965007;28;20490;-72
2022/09/05 11:12:09;;;;;;;3.97;3.67;;;26.00;99.90;;;;;;4974102;28;20429;-73
2022/09/05 11:14:52;;;;;;;4.60;4.20;;;26.00;99.90;;;;;;4973421;28;20560;-71
2022/09/05 11:17:45;;;;;;;9.30;4.10;;;26.10;99.90;;;;;;4957281;28;20585;-72
2022/09/05 11:20:55;;;;;;;3.93;3.63;;;26.20;99.90;;;;;;4974182;28;21042;-72
2022/09/05 11:23:30;;;;;;;3.97;3.67;;;26.40;99.90;;;;;;4961446;28;20512;-76
2022/09/05 11:26:14;;;;;;;3.90;3.50;;;26.60;99.90;;;;;;4979929;28;20473;-73
2022/09/05 11:28:54;;;;;;;4.80;4.40;;;26.60;99.90;;;;;;4973372;28;20997;-74
2022/09/05 11:31:24;;;;;;;4.10;3.80;;;26.70;99.90;;;;;;4979579;28;20483;-78
2022/09/05 11:33:53;;;;;;;5.57;4.40;;;26.80;99.90;;;;;;4979131;28;20461;-75
2022/09/05 11:36:28;;;;;;;4.87;4.03;;;26.80;99.90;;;;;;4978679;28;20425;-74
2022/09/05 11:39:00;;;;;;;4.77;3.57;;;27.00;99.90;;;;;;4979593;28;20424;-74
2022/09/05 11:42:05;;;;;;;4.20;3.80;;;27.00;99.90;;;;;;4973682;28;20476;-75
2022/09/05 11:45:12;;;;;;;3.87;3.57;;;27.20;99.90;;;;;;4924610;28;20589;-73
2022/09/05 11:48:05;;;;;;;5.13;4.10;;;27.30;99.90;;;;;;4974457;28;20520;-77
2022/09/05 11:50:42;;;;;;;4.60;4.17;;;27.50;99.90;;;;;;4975154;28;20455;-79
2022/09/05 11:53:23;;;;;;;8.60;4.57;;;27.60;99.90;;;;;;4970237;28;20441;-77
2022/09/05 11:56:02;;;;;;;4.67;4.27;;;27.80;99.90;;;;;;4958344;28;20433;-72
2022/09/05 11:58:36;;;;;;;5.23;4.73;;;28.10;99.90;;;;;;4979809;28;20536;-71
2022/09/05 12:01:14;;;;;;;5.80;4.20;;;28.40;99.90;;;;;;4962449;28;20441;-71
2022/09/05 12:04:07;;;;;;;5.40;4.00;;;28.80;99.90;;;;;;4975122;28;20497;-72
2022/09/05 12:07:07;;;;;;;4.70;4.30;;;29.30;98.70;;;;;;4958646;28;20483;-72
2022/09/05 12:09:54;;;;;;;4.60;4.20;;;30.10;98.30;;;;;;4975239;28;20879;-72
2022/09/05 12:12:31;;;;;;;5.30;4.60;;;30.70;97.40;;;;;;4955457;28;20488;-72
2022/09/05 12:15:00;;;;;;;4.10;3.70;;;31.20;96.60;;;;;;4954121;28;20471;-72
2022/09/05 12:17:37;;;;;;;4.60;4.20;;;31.70;94.50;;;;;;4973556;28;20965;-72
2022/09/05 12:20:11;;;;;;;3.80;3.50;;;32.10;93.90;;;;;;4971237;28;21310;-77
2022/09/05 12:22:37;;;;;;;4.80;3.90;;;32.50;91.50;;;;;;4974454;28;20523;-78
2022/09/05 12:25:25;;;;;;;8.73;4.80;;;32.70;89.50;;;;;;4972526;28;20834;-75
2022/09/05 12:28:05;;;;;;;5.30;3.73;;;32.50;88.30;;;;;;4973266;28;20469;-78
2022/09/05 12:30:36;;;;;;;4.47;4.00;;;32.70;86.20;;;;;;4972041;28;20695;-74
2022/09/05 12:33:10;;;;;;;5.07;4.00;;;32.80;84.90;;;;;;4975673;28;20476;-73
2022/09/05 12:36:02;;;;;;;5.10;4.10;;;33.10;83.80;;;;;;4972736;28;20463;-76
2022/09/05 12:38:43;;;;;;;4.50;4.00;;;33.70;82.00;;;;;;4974440;28;20906;-75
2022/09/05 12:41:20;;;;;;;4.03;3.63;;;34.20;79.60;;;;;;4957793;28;21120;-78
2022/09/05 12:44:29;;;;;;;5.90;3.50;;;34.50;77.20;;;;;;4972498;28;20485;-75
2022/09/05 12:47:17;;;;;;;4.63;4.23;;;34.80;75.00;;;;;;4956816;28;20445;-73
2022/09/05 12:49:55;;;;;;;4.30;4.00;;;34.90;71.70;;;;;;4967602;28;20433;-75
2022/09/05 12:52:32;;;;;;;4.10;3.70;;;35.30;71.20;;;;;;4954037;28;20452;-77
2022/09/05 12:55:21;;;;;;;4.73;3.60;;;35.40;67.60;;;;;;4970120;28;20521;-75
2022/09/05 12:57:50;;;;;;;4.10;3.70;;;35.50;66.40;;;;;;4965193;28;20455;-77
2022/09/05 13:00:20;;;;;;;6.53;3.80;;;35.50;64.00;;;;;;4955799;28;20446;-76
2022/09/05 13:03:01;;;;;;;4.27;3.87;;;35.20;63.50;;;;;;4971693;28;20416;-76
2022/09/05 13:05:56;;;;;;;3.80;3.40;;;35.40;63.90;;;;;;4970655;28;20451;-76
2022/09/05 13:08:27;;;;;;;3.70;3.40;;;35.70;63.20;;;;;;4966002;28;20419;-74
2022/09/05 13:10:57;;;;;;;3.77;3.47;;;36.10;62.30;;;;;;4969189;28;20468;-75
2022/09/05 13:13:38;;;;;;;4.03;3.67;;;36.40;61.10;;;;;;4968946;28;20809;-75
2022/09/05 13:16:08;;;;;;;4.13;3.70;;;36.80;59.50;;;;;;4954828;28;20415;-75
2022/09/05 13:18:40;;;;;;;3.53;3.23;;;37.20;56.80;;;;;;4972351;28;20419;-75
2022/09/05 13:21:17;;;;;;;4.13;2.97;;;37.20;54.00;;;;;;4968337;28;20428;-75
2022/09/05 13:24:10;;;;;;;3.73;3.30;;;38.00;49.90;;;;;;4971347;28;20567;-75
2022/09/05 13:26:50;;;;;;;3.67;3.37;;;38.50;48.60;;;;;;4956668;28;20485;-75
2022/09/05 13:29:21;;;;;;;3.67;3.33;;;39.10;48.10;;;;;;4968720;28;20492;-77
2022/09/05 13:31:51;;;;;;;3.40;3.10;;;39.60;46.10;;;;;;4968647;28;20467;-76
2022/09/05 13:34:19;;;;;;;4.80;3.23;;;40.00;46.10;;;;;;4968743;28;21069;-77
2022/09/05 13:36:50;;;;;;;3.47;3.20;;;40.40;44.50;;;;;;4951170;28;20816;-75
2022/09/05 13:39:26;;;;;;;3.20;2.90;;;40.50;43.00;;;;;;4968001;28;20452;-75
2022/09/05 13:41:58;;;;;;;3.50;3.20;;;40.40;42.30;;;;;;4969679;28;20501;-76
2022/09/05 13:44:25;;;;;;;3.73;3.23;;;40.70;42.20;;;;;;4967469;28;20540;-77
2022/09/05 13:47:17;;;;;;;4.77;3.00;;;41.00;41.90;;;;;;4972169;28;20449;-76
2022/09/05 13:50:02;;;;;;;3.10;2.90;;;40.80;40.00;;;;;;4932907;28;20455;-75
2022/09/05 13:52:32;;;;;;;3.37;3.07;;;40.60;38.20;;;;;;4968892;28;20473;-75
2022/09/05 13:55:20;;;;;;;3.37;2.67;;;40.70;38.40;;;;;;4970673;28;20449;-75
2022/09/05 13:57:52;;;;;;;3.00;2.70;;;41.20;37.50;;;;;;4970350;28;20555;-76
2022/09/05 14:00:39;;;;;;;4.10;3.70;;;41.90;37.40;;;;;;4973544;28;20828;-75
2022/09/05 14:03:24;;;;;;;3.07;2.87;;;42.40;36.90;;;;;;4966501;28;20511;-74
2022/09/05 14:05:57;;;;;;;3.53;2.80;;;43.20;36.50;;;;;;4968453;28;20460;-76